sensor_id;sensor_type;location;lat;lon;timestamp;temperature;humidity
18797;DHT22;9526;52.612;13.300;2023-08-08T00:01:32;14.80;99.90
18797;DHT22;9526;52.612;13.300;2023-08-08T00:03:57;14.70;99.90
18797;DHT22;9526;52.612;13.300;2023-08-08T00:06:20;14.60;99.90
18797;DHT22;9526;52.612;13.300;2023-08-08T00:08:45;14.60;99.90
18797;DHT22;9526;52.612;13.300;2023-08-08T00:11:09;14.60;99.90
18797;DHT22;9526;52.612;13.300;2023-08-08T00:13:33;14.50;99.90
18797;DHT22;9526;52.612;13.300;2023-08-08T00:15:56;14.50;99.90
18797;DHT22;9526;52.612;13.300;2023-08-08T00:18:20;14.50;99.90
18797;DHT22;9526;52.612;13.300;2023-08-08T00:20:44;14.40;99.90
18797;DHT22;9526;52.612;13.300;2023-08-08T00:23:07;14.30;99.90
18797;DHT22;9526;52.612;13.300;2023-08-08T00:25:33;14.30;99.90
18797;DHT22;9526;52.612;13.300;2023-08-08T00:27:56;14.30;99.90
18797;DHT22;9526;52.612;13.300;2023-08-08T00:30:20;14.30;99.90
18797;DHT22;9526;52.612;13.300;2023-08-08T00:32:44;14.20;99.90
18797;DHT22;9526;52.612;13.300;2023-08-08T00:35:08;14.30;99.90
18797;DHT22;9526;52.612;13.300;2023-08-08T00:37:32;14.20;99.90
18797;DHT22;9526;52.612;13.300;2023-08-08T00:39:56;14.20;99.90
18797;DHT22;9526;52.612;13.300;2023-08-08T00:42:22;14.20;99.90
18797;DHT22;9526;52.612;13.300;2023-08-08T00:44:46;14.20;99.90
18797;DHT22;9526;52.612;13.300;2023-08-08T00:47:09;14.10;99.90
18797;DHT22;9526;52.612;13.300;2023-08-08T00:49:34;14.10;99.90
18797;DHT22;9526;52.612;13.300;2023-08-08T00:51:58;14.10;99.90
18797;DHT22;9526;52.612;13.300;2023-08-08T00:54:22;14.10;99.90
18797;DHT22;9526;52.612;13.300;2023-08-08T00:56:46;14.10;99.90
18797;DHT22;9526;52.612;13.300;2023-08-08T00:59:12;14.10;99.90
18797;DHT22;9526;52.612;13.300;2023-08-08T01:01:37;14.00;99.90
18797;DHT22;9526;52.612;13.300;2023-08-08T01:04:01;14.00;99.90
18797;DHT22;9526;52.612;13.300;2023-08-08T01:06:35;13.90;99.90
18797;DHT22;9526;52.612;13.300;2023-08-08T01:09:07;13.90;99.90
18797;DHT22;9526;52.612;13.300;2023-08-08T01:11:34;13.90;99.90
18797;DHT22;9526;52.612;13.300;2023-08-08T01:13:59;13.90;99.90
18797;DHT22;9526;52.612;13.300;2023-08-08T01:16:26;13.90;99.90
18797;DHT22;9526;52.612;13.300;2023-08-08T01:18:51;13.80;99.90
18797;DHT22;9526;52.612;13.300;2023-08-08T01:21:16;13.80;99.90
18797;DHT22;9526;52.612;13.300;2023-08-08T01:23:44;13.80;99.90
18797;DHT22;9526;52.612;13.300;2023-08-08T01:26:12;13.70;99.90
18797;DHT22;9526;52.612;13.300;2023-08-08T01:28:35;13.80;99.90
18797;DHT22;9526;52.612;13.300;2023-08-08T01:30:59;13.80;99.90
18797;DHT22;9526;52.612;13.300;2023-08-08T01:33:23;13.80;99.90
18797;DHT22;9526;52.612;13.300;2023-08-08T01:35:51;13.80;99.90
18797;DHT22;9526;52.612;13.300;2023-08-08T01:38:22;13.80;99.90
18797;DHT22;9526;52.612;13.300;2023-08-08T01:40:48;13.80;99.90
18797;DHT22;9526;52.612;13.300;2023-08-08T01:43:14;13.90;99.90
18797;DHT22;9526;52.612;13.300;2023-08-08T01:45:39;13.90;99.90
18797;DHT22;9526;52.612;13.300;2023-08-08T01:48:06;13.90;99.90
18797;DHT22;9526;52.612;13.300;2023-08-08T01:50:31;13.90;99.90
18797;DHT22;9526;52.612;13.300;2023-08-08T01:52:55;13.90;99.90
18797;DHT22;9526;52.612;13.300;2023-08-08T01:55:19;13.90;99.90
18797;DHT22;9526;52.612;13.300;2023-08-08T01:57:44;13.90;99.90
18797;DHT22;9526;52.612;13.300;2023-08-08T02:00:09;13.90;99.90
18797;DHT22;9526;52.612;13.300;2023-08-08T02:02:37;13.90;99.90
18797;DHT22;9526;52.612;13.300;2023-08-08T02:05:01;13.90;99.90
18797;DHT22;9526;52.612;13.300;2023-08-08T02:07:25;13.90;99.90
18797;DHT22;9526;52.612;13.300;2023-08-08T02:09:49;13.90;99.90
18797;DHT22;9526;52.612;13.300;2023-08-08T02:12:13;13.90;99.90
18797;DHT22;9526;52.612;13.300;2023-08-08T02:14:37;13.90;99.90
18797;DHT22;9526;52.612;13.300;2023-08-08T02:17:02;13.90;99.90
18797;DHT22;9526;52.612;13.300;2023-08-08T02:19:26;13.90;99.90
18797;DHT22;9526;52.612;13.300;2023-08-08T02:21:49;13.90;99.90
18797;DHT22;9526;52.612;13.300;2023-08-08T02:24:13;13.90;99.90
18797;DHT22;9526;52.612;13.300;2023-08-08T02:26:37;13.90;99.90
18797;DHT22;9526;52.612;13.300;2023-08-08T02:29:03;13.90;99.90
18797;DHT22;9526;52.612;13.300;2023-08-08T02:31:26;13.90;99.90
18797;DHT22;9526;52.612;13.300;2023-08-08T02:33:52;13.90;99.90
18797;DHT22;9526;52.612;13.300;2023-08-08T02:36:17;13.80;99.90
18797;DHT22;9526;52.612;13.300;2023-08-08T02:38:41;13.90;99.90
18797;DHT22;9526;52.612;13.300;2023-08-08T02:41:05;13.80;99.90
18797;DHT22;9526;52.612;13.300;2023-08-08T02:43:28;13.70;99.90
18797;DHT22;9526;52.612;13.300;2023-08-08T02:45:52;13.70;99.90
18797;DHT22;9526;52.612;13.300;2023-08-08T02:48:16;13.70;99.90
18797;DHT22;9526;52.612;13.300;2023-08-08T02:50:42;13.60;99.90
18797;DHT22;9526;52.612;13.300;2023-08-08T02:53:06;13.60;99.90
18797;DHT22;9526;52.612;13.300;2023-08-08T02:55:36;13.60;99.90
18797;DHT22;9526;52.612;13.300;2023-08-08T02:58:00;13.60;99.90
18797;DHT22;9526;52.612;13.300;2023-08-08T03:00:25;13.50;99.90
18797;DHT22;9526;52.612;13.300;2023-08-08T03:02:49;13.50;99.90
18797;DHT22;9526;52.612;13.300;2023-08-08T03:05:13;13.50;99.90
18797;DHT22;9526;52.612;13.300;2023-08-08T03:07:38;13.50;99.90
18797;DHT22;9526;52.612;13.300;2023-08-08T03:10:02;13.50;99.90
18797;DHT22;9526;52.612;13.300;2023-08-08T03:12:28;13.40;99.90
18797;DHT22;9526;52.612;13.300;2023-08-08T03:14:52;13.40;99.90
18797;DHT22;9526;52.612;13.300;2023-08-08T03:17:17;13.40;99.90
18797;DHT22;9526;52.612;13.300;2023-08-08T03:19:40;13.30;99.90
18797;DHT22;9526;52.612;13.300;2023-08-08T03:22:04;13.30;99.90
18797;DHT22;9526;52.612;13.300;2023-08-08T03:24:33;13.30;99.90
18797;DHT22;9526;52.612;13.300;2023-08-08T03:26:56;13.30;99.90
18797;DHT22;9526;52.612;13.300;2023-08-08T03:29:20;13.30;99.90
18797;DHT22;9526;52.612;13.300;2023-08-08T03:31:44;13.20;99.90
18797;DHT22;9526;52.612;13.300;2023-08-08T03:34:08;13.30;99.90
18797;DHT22;9526;52.612;13.300;2023-08-08T03:36:33;13.30;99.90
18797;DHT22;9526;52.612;13.300;2023-08-08T03:38:57;13.30;99.90
18797;DHT22;9526;52.612;13.300;2023-08-08T03:41:22;13.30;99.90
18797;DHT22;9526;52.612;13.300;2023-08-08T03:43:45;13.30;99.90
18797;DHT22;9526;52.612;13.300;2023-08-08T03:46:09;13.40;99.90
18797;DHT22;9526;52.612;13.300;2023-08-08T03:48:33;13.40;99.90
18797;DHT22;9526;52.612;13.300;2023-08-08T03:50:57;13.40;99.90
18797;DHT22;9526;52.612;13.300;2023-08-08T03:53:21;13.40;99.90
18797;DHT22;9526;52.612;13.300;2023-08-08T03:55:44;13.40;99.90
18797;DHT22;9526;52.612;13.300;2023-08-08T03:58:11;13.40;99.90
18797;DHT22;9526;52.612;13.300;2023-08-08T04:00:35;13.40;99.90
18797;DHT22;9526;52.612;13.300;2023-08-08T04:02:59;13.40;99.90
18797;DHT22;9526;52.612;13.300;2023-08-08T04:05:23;13.40;99.90
18797;DHT22;9526;52.612;13.300;2023-08-08T04:07:47;13.50;99.90
18797;DHT22;9526;52.612;13.300;2023-08-08T04:10:11;13.50;99.90
18797;DHT22;9526;52.612;13.300;2023-08-08T04:12:35;13.50;99.90
18797;DHT22;9526;52.612;13.300;2023-08-08T04:15:00;13.40;99.90
18797;DHT22;9526;52.612;13.300;2023-08-08T04:17:24;13.40;99.90
18797;DHT22;9526;52.612;13.300;2023-08-08T04:19:48;13.40;99.90
18797;DHT22;9526;52.612;13.300;2023-08-08T04:22:11;13.40;99.90
18797;DHT22;9526;52.612;13.300;2023-08-08T04:24:35;13.50;99.90
18797;DHT22;9526;52.612;13.300;2023-08-08T04:26:59;13.50;99.90
18797;DHT22;9526;52.612;13.300;2023-08-08T04:29:22;13.50;99.90
18797;DHT22;9526;52.612;13.300;2023-08-08T04:31:47;13.60;99.90
18797;DHT22;9526;52.612;13.300;2023-08-08T04:34:11;13.60;99.90
18797;DHT22;9526;52.612;13.300;2023-08-08T04:36:35;13.60;99.90
18797;DHT22;9526;52.612;13.300;2023-08-08T04:38:58;13.60;99.90
18797;DHT22;9526;52.612;13.300;2023-08-08T04:41:22;13.60;99.90
18797;DHT22;9526;52.612;13.300;2023-08-08T04:43:46;13.70;99.90
18797;DHT22;9526;52.612;13.300;2023-08-08T04:46:10;13.60;99.90
18797;DHT22;9526;52.612;13.300;2023-08-08T04:48:35;13.70;99.90
18797;DHT22;9526;52.612;13.300;2023-08-08T04:50:59;13.70;99.90
18797;DHT22;9526;52.612;13.300;2023-08-08T04:53:23;13.70;99.90
18797;DHT22;9526;52.612;13.300;2023-08-08T04:55:47;13.70;99.90
18797;DHT22;9526;52.612;13.300;2023-08-08T04:58:11;13.70;99.90
18797;DHT22;9526;52.612;13.300;2023-08-08T05:00:34;13.80;99.90
18797;DHT22;9526;52.612;13.300;2023-08-08T05:02:59;13.90;99.90
18797;DHT22;9526;52.612;13.300;2023-08-08T05:05:24;13.90;99.90
18797;DHT22;9526;52.612;13.300;2023-08-08T05:07:48;13.90;99.90
18797;DHT22;9526;52.612;13.300;2023-08-08T05:10:11;13.90;99.90
18797;DHT22;9526;52.612;13.300;2023-08-08T05:12:36;13.90;99.90
18797;DHT22;9526;52.612;13.300;2023-08-08T05:15:00;14.00;99.90
18797;DHT22;9526;52.612;13.300;2023-08-08T05:17:24;14.00;99.90
18797;DHT22;9526;52.612;13.300;2023-08-08T05:19:48;14.00;99.90
18797;DHT22;9526;52.612;13.300;2023-08-08T05:22:13;14.00;99.90
18797;DHT22;9526;52.612;13.300;2023-08-08T05:24:36;14.20;99.90
18797;DHT22;9526;52.612;13.300;2023-08-08T05:27:00;14.20;99.90
18797;DHT22;9526;52.612;13.300;2023-08-08T05:29:25;14.20;99.90
18797;DHT22;9526;52.612;13.300;2023-08-08T05:31:49;14.30;99.90
18797;DHT22;9526;52.612;13.300;2023-08-08T05:34:12;14.30;99.90
18797;DHT22;9526;52.612;13.300;2023-08-08T05:36:36;14.40;99.90
18797;DHT22;9526;52.612;13.300;2023-08-08T05:39:01;14.40;99.90
18797;DHT22;9526;52.612;13.300;2023-08-08T05:41:25;14.50;99.90
18797;DHT22;9526;52.612;13.300;2023-08-08T05:43:49;14.60;99.90
18797;DHT22;9526;52.612;13.300;2023-08-08T05:46:13;14.70;99.90
18797;DHT22;9526;52.612;13.300;2023-08-08T05:48:37;14.70;99.90
18797;DHT22;9526;52.612;13.300;2023-08-08T05:51:00;14.80;99.90
18797;DHT22;9526;52.612;13.300;2023-08-08T05:53:27;14.90;99.90
18797;DHT22;9526;52.612;13.300;2023-08-08T05:55:52;14.90;99.90
18797;DHT22;9526;52.612;13.300;2023-08-08T05:58:15;15.00;99.90
18797;DHT22;9526;52.612;13.300;2023-08-08T06:00:41;15.00;99.90
18797;DHT22;9526;52.612;13.300;2023-08-08T06:03:05;15.10;99.90
18797;DHT22;9526;52.612;13.300;2023-08-08T06:05:29;15.00;99.90
18797;DHT22;9526;52.612;13.300;2023-08-08T06:07:53;15.10;99.90
18797;DHT22;9526;52.612;13.300;2023-08-08T06:10:17;15.20;99.90
18797;DHT22;9526;52.612;13.300;2023-08-08T06:12:42;15.30;99.90
18797;DHT22;9526;52.612;13.300;2023-08-08T06:15:07;15.50;99.90
18797;DHT22;9526;52.612;13.300;2023-08-08T06:17:31;15.90;99.90
18797;DHT22;9526;52.612;13.300;2023-08-08T06:19:55;16.10;99.90
18797;DHT22;9526;52.612;13.300;2023-08-08T06:22:19;16.10;99.90
18797;DHT22;9526;52.612;13.300;2023-08-08T06:24:45;16.10;99.90
18797;DHT22;9526;52.612;13.300;2023-08-08T06:27:09;16.10;99.90
18797;DHT22;9526;52.612;13.300;2023-08-08T06:29:34;16.10;99.90
18797;DHT22;9526;52.612;13.300;2023-08-08T06:31:58;16.10;99.90
18797;DHT22;9526;52.612;13.300;2023-08-08T06:34:22;16.30;99.90
18797;DHT22;9526;52.612;13.300;2023-08-08T06:36:45;16.40;99.90
18797;DHT22;9526;52.612;13.300;2023-08-08T06:39:10;16.50;99.90
18797;DHT22;9526;52.612;13.300;2023-08-08T06:41:34;16.40;99.90
18797;DHT22;9526;52.612;13.300;2023-08-08T06:43:58;16.40;99.90
18797;DHT22;9526;52.612;13.300;2023-08-08T06:46:23;16.30;99.90
18797;DHT22;9526;52.612;13.300;2023-08-08T06:48:47;16.40;99.90
18797;DHT22;9526;52.612;13.300;2023-08-08T06:51:12;16.30;99.90
18797;DHT22;9526;52.612;13.300;2023-08-08T06:53:36;16.20;99.90
18797;DHT22;9526;52.612;13.300;2023-08-08T06:56:00;16.20;99.90
18797;DHT22;9526;52.612;13.300;2023-08-08T06:58:23;16.20;99.90
18797;DHT22;9526;52.612;13.300;2023-08-08T07:00:47;16.30;99.90
18797;DHT22;9526;52.612;13.300;2023-08-08T07:03:12;16.30;99.90
18797;DHT22;9526;52.612;13.300;2023-08-08T07:05:36;16.30;99.90
18797;DHT22;9526;52.612;13.300;2023-08-08T07:08:00;16.40;99.90
18797;DHT22;9526;52.612;13.300;2023-08-08T07:10:23;16.40;99.90
18797;DHT22;9526;52.612;13.300;2023-08-08T07:12:47;16.50;99.90
18797;DHT22;9526;52.612;13.300;2023-08-08T07:15:12;16.60;99.90
18797;DHT22;9526;52.612;13.300;2023-08-08T07:17:36;16.60;99.90
18797;DHT22;9526;52.612;13.300;2023-08-08T07:20:01;16.70;99.90
18797;DHT22;9526;52.612;13.300;2023-08-08T07:22:25;16.80;99.90
18797;DHT22;9526;52.612;13.300;2023-08-08T07:24:49;16.80;99.90
18797;DHT22;9526;52.612;13.300;2023-08-08T07:27:13;16.90;99.90
18797;DHT22;9526;52.612;13.300;2023-08-08T07:29:36;17.00;99.90
18797;DHT22;9526;52.612;13.300;2023-08-08T07:32:03;17.10;99.90
18797;DHT22;9526;52.612;13.300;2023-08-08T07:34:27;17.10;99.90
18797;DHT22;9526;52.612;13.300;2023-08-08T07:36:52;17.20;99.90
18797;DHT22;9526;52.612;13.300;2023-08-08T07:39:16;17.30;99.90
18797;DHT22;9526;52.612;13.300;2023-08-08T07:41:40;17.40;99.90
18797;DHT22;9526;52.612;13.300;2023-08-08T07:44:04;17.40;99.90
18797;DHT22;9526;52.612;13.300;2023-08-08T07:46:28;17.60;99.90
18797;DHT22;9526;52.612;13.300;2023-08-08T07:48:52;17.70;99.90
18797;DHT22;9526;52.612;13.300;2023-08-08T07:51:16;17.60;99.90
18797;DHT22;9526;52.612;13.300;2023-08-08T07:53:41;17.70;99.90
18797;DHT22;9526;52.612;13.300;2023-08-08T07:56:08;17.80;99.90
18797;DHT22;9526;52.612;13.300;2023-08-08T07:58:32;17.70;99.90
18797;DHT22;9526;52.612;13.300;2023-08-08T08:00:56;17.60;99.90
18797;DHT22;9526;52.612;13.300;2023-08-08T08:03:22;17.70;99.90
18797;DHT22;9526;52.612;13.300;2023-08-08T08:05:46;17.70;99.90
18797;DHT22;9526;52.612;13.300;2023-08-08T08:08:10;17.80;99.90
18797;DHT22;9526;52.612;13.300;2023-08-08T08:10:35;18.10;99.90
18797;DHT22;9526;52.612;13.300;2023-08-08T08:12:59;18.30;99.90
18797;DHT22;9526;52.612;13.300;2023-08-08T08:15:23;18.50;99.90
18797;DHT22;9526;52.612;13.300;2023-08-08T08:17:46;18.50;99.90
18797;DHT22;9526;52.612;13.300;2023-08-08T08:20:10;18.40;99.90
18797;DHT22;9526;52.612;13.300;2023-08-08T08:22:34;18.40;99.90
18797;DHT22;9526;52.612;13.300;2023-08-08T08:24:58;18.30;99.90
18797;DHT22;9526;52.612;13.300;2023-08-08T08:27:23;18.40;99.90
18797;DHT22;9526;52.612;13.300;2023-08-08T08:29:47;18.20;99.90
18797;DHT22;9526;52.612;13.300;2023-08-08T08:32:11;18.20;99.90
18797;DHT22;9526;52.612;13.300;2023-08-08T08:34:34;18.00;99.90
18797;DHT22;9526;52.612;13.300;2023-08-08T08:36:58;18.00;99.90
18797;DHT22;9526;52.612;13.300;2023-08-08T08:39:22;18.00;99.90
18797;DHT22;9526;52.612;13.300;2023-08-08T08:41:48;18.10;99.90
18797;DHT22;9526;52.612;13.300;2023-08-08T08:44:14;18.10;99.90
18797;DHT22;9526;52.612;13.300;2023-08-08T08:46:39;18.10;99.90
18797;DHT22;9526;52.612;13.300;2023-08-08T08:49:05;18.00;99.90
18797;DHT22;9526;52.612;13.300;2023-08-08T08:51:30;18.10;99.90
18797;DHT22;9526;52.612;13.300;2023-08-08T08:53:54;18.10;99.90
18797;DHT22;9526;52.612;13.300;2023-08-08T08:56:18;18.30;99.90
18797;DHT22;9526;52.612;13.300;2023-08-08T08:58:42;18.50;99.90
18797;DHT22;9526;52.612;13.300;2023-08-08T09:01:08;18.60;99.90
18797;DHT22;9526;52.612;13.300;2023-08-08T09:03:32;18.70;99.90
18797;DHT22;9526;52.612;13.300;2023-08-08T09:05:57;18.70;99.90
18797;DHT22;9526;52.612;13.300;2023-08-08T09:08:22;18.60;99.90
18797;DHT22;9526;52.612;13.300;2023-08-08T09:10:46;18.70;99.90
18797;DHT22;9526;52.612;13.300;2023-08-08T09:13:09;19.00;99.90
18797;DHT22;9526;52.612;13.300;2023-08-08T09:15:34;19.00;99.90
18797;DHT22;9526;52.612;13.300;2023-08-08T09:17:59;19.00;99.90
18797;DHT22;9526;52.612;13.300;2023-08-08T09:20:25;19.10;99.90
18797;DHT22;9526;52.612;13.300;2023-08-08T09:22:52;19.10;99.90
18797;DHT22;9526;52.612;13.300;2023-08-08T09:25:16;19.20;99.90
18797;DHT22;9526;52.612;13.300;2023-08-08T09:27:41;19.10;99.90
18797;DHT22;9526;52.612;13.300;2023-08-08T09:30:06;19.10;99.90
18797;DHT22;9526;52.612;13.300;2023-08-08T09:32:32;19.20;99.90
18797;DHT22;9526;52.612;13.300;2023-08-08T09:34:58;19.40;99.90
18797;DHT22;9526;52.612;13.300;2023-08-08T09:37:22;19.50;99.90
18797;DHT22;9526;52.612;13.300;2023-08-08T09:39:46;19.40;99.90
18797;DHT22;9526;52.612;13.300;2023-08-08T09:42:09;19.50;99.90
18797;DHT22;9526;52.612;13.300;2023-08-08T09:44:33;19.80;99.90
18797;DHT22;9526;52.612;13.300;2023-08-08T09:46:57;19.80;99.90
18797;DHT22;9526;52.612;13.300;2023-08-08T09:49:23;19.90;99.90
18797;DHT22;9526;52.612;13.300;2023-08-08T09:51:49;19.70;99.90
18797;DHT22;9526;52.612;13.300;2023-08-08T09:54:13;19.80;99.90
18797;DHT22;9526;52.612;13.300;2023-08-08T09:56:37;19.50;99.90
18797;DHT22;9526;52.612;13.300;2023-08-08T09:59:05;19.40;99.90
18797;DHT22;9526;52.612;13.300;2023-08-08T10:01:30;19.10;99.90
18797;DHT22;9526;52.612;13.300;2023-08-08T10:03:56;19.00;99.90
18797;DHT22;9526;52.612;13.300;2023-08-08T10:06:20;19.10;99.90
18797;DHT22;9526;52.612;13.300;2023-08-08T10:08:45;19.20;99.90
18797;DHT22;9526;52.612;13.300;2023-08-08T10:11:09;19.40;99.90
18797;DHT22;9526;52.612;13.300;2023-08-08T10:13:35;19.50;99.90
18797;DHT22;9526;52.612;13.300;2023-08-08T10:16:04;19.50;99.90
18797;DHT22;9526;52.612;13.300;2023-08-08T10:18:31;19.90;99.90
18797;DHT22;9526;52.612;13.300;2023-08-08T10:20:54;20.40;99.90
18797;DHT22;9526;52.612;13.300;2023-08-08T10:23:20;20.50;99.90
18797;DHT22;9526;52.612;13.300;2023-08-08T10:25:47;20.60;99.90
18797;DHT22;9526;52.612;13.300;2023-08-08T10:28:13;20.60;99.90
18797;DHT22;9526;52.612;13.300;2023-08-08T10:30:45;20.90;99.90
18797;DHT22;9526;52.612;13.300;2023-08-08T10:33:16;20.80;99.90
18797;DHT22;9526;52.612;13.300;2023-08-08T10:35:40;20.70;99.90
18797;DHT22;9526;52.612;13.300;2023-08-08T10:38:08;20.70;99.90
18797;DHT22;9526;52.612;13.300;2023-08-08T10:40:32;20.40;99.90
18797;DHT22;9526;52.612;13.300;2023-08-08T10:42:58;20.40;99.90
18797;DHT22;9526;52.612;13.300;2023-08-08T10:45:29;20.30;99.90
18797;DHT22;9526;52.612;13.300;2023-08-08T10:47:53;20.00;99.90
18797;DHT22;9526;52.612;13.300;2023-08-08T10:50:22;19.70;99.90
18797;DHT22;9526;52.612;13.300;2023-08-08T10:52:54;19.90;99.90
18797;DHT22;9526;52.612;13.300;2023-08-08T10:55:20;19.90;99.90
18797;DHT22;9526;52.612;13.300;2023-08-08T10:57:53;19.60;99.90
18797;DHT22;9526;52.612;13.300;2023-08-08T11:00:25;19.90;99.90
18797;DHT22;9526;52.612;13.300;2023-08-08T11:02:51;20.00;99.90
18797;DHT22;9526;52.612;13.300;2023-08-08T11:05:15;20.00;99.90
18797;DHT22;9526;52.612;13.300;2023-08-08T11:07:38;19.80;99.90
18797;DHT22;9526;52.612;13.300;2023-08-08T11:10:02;20.10;99.90
18797;DHT22;9526;52.612;13.300;2023-08-08T11:12:27;20.40;99.90
18797;DHT22;9526;52.612;13.300;2023-08-08T11:14:52;20.80;99.90
18797;DHT22;9526;52.612;13.300;2023-08-08T11:17:16;20.90;99.90
18797;DHT22;9526;52.612;13.300;2023-08-08T11:19:40;20.70;99.90
18797;DHT22;9526;52.612;13.300;2023-08-08T11:22:09;20.90;99.90
18797;DHT22;9526;52.612;13.300;2023-08-08T11:24:35;20.90;99.90
18797;DHT22;9526;52.612;13.300;2023-08-08T11:26:59;20.90;99.90
18797;DHT22;9526;52.612;13.300;2023-08-08T11:29:22;20.50;99.90
18797;DHT22;9526;52.612;13.300;2023-08-08T11:31:53;20.60;99.90
18797;DHT22;9526;52.612;13.300;2023-08-08T11:34:17;20.70;99.90
18797;DHT22;9526;52.612;13.300;2023-08-08T11:36:41;20.80;99.90
18797;DHT22;9526;52.612;13.300;2023-08-08T11:39:06;21.00;99.90
18797;DHT22;9526;52.612;13.300;2023-08-08T11:41:32;21.00;99.90
18797;DHT22;9526;52.612;13.300;2023-08-08T11:43:56;21.20;99.90
18797;DHT22;9526;52.612;13.300;2023-08-08T11:46:23;21.40;99.90
18797;DHT22;9526;52.612;13.300;2023-08-08T11:48:49;21.60;99.90
18797;DHT22;9526;52.612;13.300;2023-08-08T11:51:14;21.60;99.90
18797;DHT22;9526;52.612;13.300;2023-08-08T11:53:48;21.60;99.90
18797;DHT22;9526;52.612;13.300;2023-08-08T11:56:13;21.40;99.90
18797;DHT22;9526;52.612;13.300;2023-08-08T11:58:37;21.60;99.90
18797;DHT22;9526;52.612;13.300;2023-08-08T12:01:01;21.70;99.90
18797;DHT22;9526;52.612;13.300;2023-08-08T12:03:25;21.80;99.90
18797;DHT22;9526;52.612;13.300;2023-08-08T12:05:51;22.20;99.90
18797;DHT22;9526;52.612;13.300;2023-08-08T12:08:17;22.40;99.90
18797;DHT22;9526;52.612;13.300;2023-08-08T12:10:47;22.80;99.90
18797;DHT22;9526;52.612;13.300;2023-08-08T12:13:15;23.10;99.90
18797;DHT22;9526;52.612;13.300;2023-08-08T12:15:43;23.10;99.90
18797;DHT22;9526;52.612;13.300;2023-08-08T12:18:11;23.30;99.90
18797;DHT22;9526;52.612;13.300;2023-08-08T12:20:35;22.80;99.90
18797;DHT22;9526;52.612;13.300;2023-08-08T12:23:00;22.40;99.90
18797;DHT22;9526;52.612;13.300;2023-08-08T12:25:24;22.70;99.90
18797;DHT22;9526;52.612;13.300;2023-08-08T12:27:47;22.90;99.90
18797;DHT22;9526;52.612;13.300;2023-08-08T12:30:13;22.80;99.90
18797;DHT22;9526;52.612;13.300;2023-08-08T12:32:36;22.60;99.90
18797;DHT22;9526;52.612;13.300;2023-08-08T12:35:00;23.00;99.90
18797;DHT22;9526;52.612;13.300;2023-08-08T12:37:24;23.10;99.90
18797;DHT22;9526;52.612;13.300;2023-08-08T12:39:49;22.80;99.90
18797;DHT22;9526;52.612;13.300;2023-08-08T12:42:13;23.10;99.90
18797;DHT22;9526;52.612;13.300;2023-08-08T12:44:37;23.10;99.90
18797;DHT22;9526;52.612;13.300;2023-08-08T12:47:00;22.90;99.90
18797;DHT22;9526;52.612;13.300;2023-08-08T12:49:25;22.50;99.90
18797;DHT22;9526;52.612;13.300;2023-08-08T12:51:50;22.10;99.90
18797;DHT22;9526;52.612;13.300;2023-08-08T12:54:16;21.70;99.90
18797;DHT22;9526;52.612;13.300;2023-08-08T12:56:41;21.40;99.90
18797;DHT22;9526;52.612;13.300;2023-08-08T12:59:05;21.50;99.90
18797;DHT22;9526;52.612;13.300;2023-08-08T13:01:28;21.20;99.90
18797;DHT22;9526;52.612;13.300;2023-08-08T13:03:52;21.00;99.90
18797;DHT22;9526;52.612;13.300;2023-08-08T13:06:36;21.10;99.90
18797;DHT22;9526;52.612;13.300;2023-08-08T13:08:59;21.30;99.90
18797;DHT22;9526;52.612;13.300;2023-08-08T13:11:23;21.80;99.90
18797;DHT22;9526;52.612;13.300;2023-08-08T13:13:49;22.00;99.90
18797;DHT22;9526;52.612;13.300;2023-08-08T13:16:12;22.30;99.90
18797;DHT22;9526;52.612;13.300;2023-08-08T13:18:36;22.60;99.90
18797;DHT22;9526;52.612;13.300;2023-08-08T13:21:00;22.70;99.90
18797;DHT22;9526;52.612;13.300;2023-08-08T13:23:24;22.80;99.90
18797;DHT22;9526;52.612;13.300;2023-08-08T13:25:47;22.70;99.90
18797;DHT22;9526;52.612;13.300;2023-08-08T13:28:11;22.70;99.90
18797;DHT22;9526;52.612;13.300;2023-08-08T13:30:38;22.70;99.90
18797;DHT22;9526;52.612;13.300;2023-08-08T13:33:03;22.60;99.90
18797;DHT22;9526;52.612;13.300;2023-08-08T13:35:27;22.20;99.90
18797;DHT22;9526;52.612;13.300;2023-08-08T13:37:52;22.20;99.90
18797;DHT22;9526;52.612;13.300;2023-08-08T13:40:16;22.10;99.90
18797;DHT22;9526;52.612;13.300;2023-08-08T13:42:40;22.00;99.90
18797;DHT22;9526;52.612;13.300;2023-08-08T13:45:05;21.90;99.90
18797;DHT22;9526;52.612;13.300;2023-08-08T13:47:31;21.60;99.90
18797;DHT22;9526;52.612;13.300;2023-08-08T13:49:55;21.60;99.90
18797;DHT22;9526;52.612;13.300;2023-08-08T13:52:18;21.40;99.90
18797;DHT22;9526;52.612;13.300;2023-08-08T13:54:42;20.90;99.90
18797;DHT22;9526;52.612;13.300;2023-08-08T13:57:05;20.90;99.90
18797;DHT22;9526;52.612;13.300;2023-08-08T13:59:29;20.60;99.90
18797;DHT22;9526;52.612;13.300;2023-08-08T14:01:53;20.40;99.90
18797;DHT22;9526;52.612;13.300;2023-08-08T14:04:18;20.40;99.90
18797;DHT22;9526;52.612;13.300;2023-08-08T14:06:42;20.40;99.90
18797;DHT22;9526;52.612;13.300;2023-08-08T14:09:06;20.40;99.90
18797;DHT22;9526;52.612;13.300;2023-08-08T14:11:32;20.50;99.90
18797;DHT22;9526;52.612;13.300;2023-08-08T14:13:56;20.90;99.90
18797;DHT22;9526;52.612;13.300;2023-08-08T14:16:20;20.90;99.90
18797;DHT22;9526;52.612;13.300;2023-08-08T14:18:44;20.70;99.90
18797;DHT22;9526;52.612;13.300;2023-08-08T14:21:09;20.70;99.90
18797;DHT22;9526;52.612;13.300;2023-08-08T14:23:32;20.90;99.90
18797;DHT22;9526;52.612;13.300;2023-08-08T14:25:56;20.90;99.90
18797;DHT22;9526;52.612;13.300;2023-08-08T14:28:20;21.30;99.90
18797;DHT22;9526;52.612;13.300;2023-08-08T14:30:45;21.20;99.90
18797;DHT22;9526;52.612;13.300;2023-08-08T14:33:09;21.30;99.90
18797;DHT22;9526;52.612;13.300;2023-08-08T14:35:32;21.40;99.90
18797;DHT22;9526;52.612;13.300;2023-08-08T14:37:57;21.40;99.90
18797;DHT22;9526;52.612;13.300;2023-08-08T14:40:21;21.60;99.90
18797;DHT22;9526;52.612;13.300;2023-08-08T14:42:45;21.50;99.90
18797;DHT22;9526;52.612;13.300;2023-08-08T14:45:10;21.40;99.90
18797;DHT22;9526;52.612;13.300;2023-08-08T14:47:33;21.40;99.90
18797;DHT22;9526;52.612;13.300;2023-08-08T14:49:57;21.40;99.90
18797;DHT22;9526;52.612;13.300;2023-08-08T14:52:21;21.30;99.90
18797;DHT22;9526;52.612;13.300;2023-08-08T14:54:47;20.90;99.90
18797;DHT22;9526;52.612;13.300;2023-08-08T14:57:10;20.50;99.90
18797;DHT22;9526;52.612;13.300;2023-08-08T14:59:34;20.40;99.90
18797;DHT22;9526;52.612;13.300;2023-08-08T15:01:58;20.20;99.90
18797;DHT22;9526;52.612;13.300;2023-08-08T15:04:22;20.00;99.90
18797;DHT22;9526;52.612;13.300;2023-08-08T15:06:47;20.10;99.90
18797;DHT22;9526;52.612;13.300;2023-08-08T15:09:10;20.20;99.90
18797;DHT22;9526;52.612;13.300;2023-08-08T15:11:37;19.90;99.90
18797;DHT22;9526;52.612;13.300;2023-08-08T15:14:00;20.10;99.90